Terminal Aerodrome Forecast
Issued by NWS Sioux Falls, SD

Home | Current Version | Previous Version | Graphics & Text | Print | Product List | Glossary On
Versions: 1 2 3 4 5 6 7 8 9 10 11 12 13
508
FTUS43 KFSD 271728
TAFHON
TAF
KHON 271728Z 2718/2818 17019G27KT P6SM SCT090
     FM272300 16019G27KT P6SM BKN110
     FM280300 16016G24KT P6SM VCTS BKN060CB
     FM280500 18012KT P6SM BKN050
     FM281000 23009KT P6SM BKN200
     FM281200 30009KT P6SM BKN200
     FM281600 31015G23KT P6SM SCT200=

USA.gov is the U.S. government's official web portal to all federal, state and local government web resources and services.